createdAt,value
2019-04-27T00:03:06.203Z,99967.89
2019-04-27T00:08:35.610Z,99975.00
2019-04-27T00:13:40.517Z,99969.60
2019-04-27T00:19:13.122Z,99969.60
2019-04-27T00:24:18.225Z,99964.70
2019-04-27T00:29:23.612Z,99962.85
2019-04-27T00:34:28.055Z,99963.34
2019-04-27T00:39:38.946Z,99941.88
2019-04-27T00:44:43.147Z,99941.88
2019-04-27T00:49:47.293Z,99924.94
2019-04-27T00:54:51.359Z,99936.34
2019-04-27T01:00:13.482Z,99936.34
2019-04-27T01:05:25.607Z,99925.78
2019-04-27T01:10:29.605Z,99919.44
2019-04-27T01:15:34.258Z,99919.32
2019-04-27T01:20:38.785Z,99944.19
2019-04-27T01:26:02.470Z,99943.83
2019-04-27T01:31:09.267Z,99943.83
2019-04-27T01:36:13.334Z,99951.70
2019-04-27T01:41:19.210Z,99945.31
2019-04-27T01:46:23.542Z,99932.05
2019-04-27T01:51:29.313Z,99932.05
2019-04-27T01:56:33.758Z,99950.59
2019-04-27T02:01:54.422Z,99941.41
2019-04-27T02:06:59.757Z,99941.41
2019-04-27T02:12:03.963Z,99922.75
2019-04-27T02:17:09.581Z,99931.47
2019-04-27T02:22:13.763Z,99931.97
2019-04-27T02:27:19.540Z,99936.61
2019-04-27T02:32:40.888Z,99940.80
2019-04-27T02:37:44.906Z,99941.42
2019-04-27T02:42:50.378Z,99945.11
2019-04-27T02:47:55.345Z,99945.11
2019-04-27T02:52:59.917Z,99943.59
2019-04-27T02:58:05.158Z,99943.59
2019-04-27T03:03:11.061Z,99950.94
2019-04-27T03:08:15.203Z,99913.66
2019-04-27T03:13:26.862Z,99933.03
2019-04-27T03:18:40.474Z,99930.11
2019-04-27T03:23:44.683Z,99922.38
2019-04-27T03:28:50.235Z,99928.12
2019-04-27T03:33:59.118Z,99928.12
2019-04-27T03:39:00.615Z,99928.00
2019-04-27T03:44:04.898Z,99934.64
2019-04-27T03:49:09.790Z,99931.35
2019-04-27T03:54:36.233Z,99933.92
2019-04-27T04:00:00.118Z,99942.41
2019-04-27T04:05:04.812Z,99944.97
2019-04-27T04:10:10.806Z,99956.48
2019-04-27T04:15:23.905Z,99956.48
2019-04-27T04:20:30.284Z,99951.59
2019-04-27T04:25:33.682Z,99959.32
2019-04-27T04:30:40.168Z,99959.32
2019-04-27T04:35:44.630Z,99956.12
2019-04-27T04:40:55.194Z,99956.48
2019-04-27T04:46:19.500Z,99958.83
2019-04-27T04:51:22.557Z,99958.10
2019-04-27T04:56:26.684Z,99960.17
2019-04-27T05:01:30.889Z,99945.11
2019-04-27T05:06:35.073Z,99962.25
2019-04-27T05:11:39.662Z,99961.39
2019-04-27T05:16:43.738Z,99965.20
2019-04-27T05:21:49.321Z,99961.52
2019-04-27T05:26:53.399Z,99961.52
2019-04-27T05:31:59.227Z,99939.31
2019-04-27T05:37:03.356Z,99947.89
2019-04-27T05:42:12.471Z,99947.89
2019-04-27T05:47:32.094Z,99949.14
2019-04-27T05:52:36.113Z,99949.14
2019-04-27T05:57:40.236Z,99940.63
2019-04-27T06:02:44.397Z,99946.53
2019-04-27T06:07:48.838Z,99946.53
2019-04-27T06:13:02.527Z,99943.73
2019-04-27T06:18:06.609Z,99921.52
2019-04-27T06:23:10.688Z,99937.84
2019-04-27T06:28:14.851Z,99947.51
2019-04-27T06:33:30.051Z,99950.20
2019-04-27T06:38:24.697Z,99943.46
2019-04-27T06:43:29.394Z,99935.72
2019-04-27T06:48:33.504Z,99934.73
2019-04-27T06:53:39.321Z,99938.68
2019-04-27T06:58:43.282Z,99946.27
2019-04-27T07:03:48.664Z,99948.27
2019-04-27T07:08:55.185Z,99952.03
2019-04-27T07:13:59.441Z,99952.03
2019-04-27T07:19:03.803Z,99943.86
2019-04-27T07:24:08.978Z,99934.60
2019-04-27T07:29:13.168Z,99939.51
2019-04-27T07:34:18.787Z,99937.92
2019-04-27T07:39:22.999Z,99935.48
2019-04-27T07:44:35.572Z,99929.73
2019-04-27T07:49:39.567Z,99930.11
2019-04-27T07:54:45.027Z,99927.53
2019-04-27T07:59:50.182Z,99932.03
2019-04-27T08:04:54.395Z,99916.75
2019-04-27T08:10:01.087Z,99916.75
2019-04-27T08:15:04.597Z,99926.30
2019-04-27T08:20:09.273Z,99919.91
2019-04-27T08:25:13.605Z,99918.47
2019-04-27T08:30:34.592Z,99918.47
2019-04-27T08:35:38.900Z,99914.29
2019-04-27T08:40:44.488Z,99910.61
2019-04-27T08:45:48.906Z,99908.53
2019-04-27T08:50:52.976Z,99914.91
2019-04-27T08:55:56.968Z,99916.75
2019-04-27T09:01:01.280Z,99903.00
2019-04-27T09:06:09.124Z,99916.48
2019-04-27T09:11:31.045Z,99914.41
2019-04-27T09:17:06.277Z,99910.11
2019-04-27T09:22:15.951Z,99907.90
2019-04-27T09:27:17.949Z,99907.90
2019-04-27T09:32:21.867Z,99891.84
2019-04-27T09:37:27.431Z,99891.57
2019-04-27T09:42:31.637Z,99892.58
2019-04-27T09:47:38.840Z,99893.57
2019-04-27T09:52:41.678Z,99883.11
2019-04-27T09:57:46.525Z,99867.42
2019-04-27T10:02:50.615Z,99867.42
2019-04-27T10:07:54.628Z,99875.28
2019-04-27T10:12:58.624Z,99869.64
2019-04-27T10:18:02.775Z,99876.25
2019-04-27T10:23:06.804Z,99871.92
2019-04-27T10:28:10.922Z,99872.03
2019-04-27T10:33:16.131Z,99872.79
2019-04-27T10:38:20.531Z,99869.70
2019-04-27T10:43:25.771Z,99875.12
2019-04-27T10:48:29.930Z,99878.52
2019-04-27T10:53:35.561Z,99851.77
2019-04-27T10:58:40.158Z,99851.77
2019-04-27T11:04:10.121Z,99848.20
2019-04-27T11:09:16.179Z,99848.20
2019-04-27T11:14:20.275Z,99839.11
2019-04-27T11:19:24.268Z,99837.16
2019-04-27T11:24:28.809Z,99829.77
2019-04-27T11:29:32.827Z,99827.33
2019-04-27T11:34:55.865Z,99827.33
2019-04-27T11:39:59.975Z,99821.91
2019-04-27T11:45:06.463Z,99811.25
2019-04-27T11:50:11.004Z,99804.45
2019-04-27T11:55:16.203Z,99805.10
2019-04-27T12:00:23.300Z,99805.10
2019-04-27T12:05:27.462Z,99787.68
2019-04-27T12:10:31.476Z,99772.84
2019-04-27T12:15:36.196Z,99772.84
2019-04-27T12:20:40.490Z,99773.95
2019-04-27T12:25:46.097Z,99773.95
2019-04-27T12:31:00.158Z,99775.77
2019-04-27T12:36:04.457Z,99770.23
2019-04-27T12:41:08.592Z,99763.87
2019-04-27T12:46:12.604Z,99790.36
2019-04-27T12:51:16.854Z,99794.20
2019-04-27T12:56:27.995Z,99793.59
2019-04-27T13:01:32.062Z,99795.44
2019-04-27T13:06:37.424Z,99799.98
2019-04-27T13:11:41.528Z,99783.15
2019-04-27T13:16:45.677Z,99785.38
2019-04-27T13:21:51.498Z,99786.56
2019-04-27T13:26:55.986Z,99786.56
2019-04-27T13:32:00.368Z,99783.96
2019-04-27T13:37:06.551Z,99787.13
2019-04-27T13:42:10.630Z,99770.54
2019-04-27T13:47:21.421Z,99761.34
2019-04-27T13:52:29.888Z,99730.06
2019-04-27T13:57:33.377Z,99716.33
2019-04-27T14:02:37.393Z,99716.33
2019-04-27T14:07:41.832Z,99714.48
2019-04-27T14:12:45.842Z,99714.48
2019-04-27T14:17:50.116Z,99707.83
2019-04-27T14:22:57.880Z,99707.83
2019-04-27T14:28:02.027Z,99704.63
2019-04-27T14:33:06.142Z,99695.57
2019-04-27T14:38:10.323Z,99695.92
2019-04-27T14:43:14.451Z,99686.22
2019-04-27T14:48:18.619Z,99682.55
2019-04-27T14:53:22.600Z,99682.55
2019-04-27T14:58:28.152Z,99676.70
2019-04-27T15:03:32.371Z,99659.78
2019-04-27T15:08:38.256Z,99660.25
2019-04-27T15:13:45.932Z,99649.87
2019-04-27T15:18:52.714Z,99636.84
2019-04-27T15:23:56.777Z,99647.81
2019-04-27T15:29:02.832Z,99646.82
2019-04-27T15:34:41.873Z,99646.82
2019-04-27T15:40:09.953Z,99637.05
2019-04-27T15:45:15.837Z,99642.23
2019-04-27T15:50:23.436Z,99642.23
2019-04-27T15:55:34.721Z,99680.91
2019-04-27T16:00:31.550Z,99709.44
2019-04-27T16:05:36.070Z,99707.84
2019-04-27T16:10:40.388Z,99711.78
2019-04-27T16:15:49.077Z,99706.97
2019-04-27T16:20:50.527Z,99700.62
2019-04-27T16:25:54.532Z,99705.93
2019-04-27T16:30:58.559Z,99713.31
2019-04-27T16:36:06.878Z,99713.31
2019-04-27T16:41:09.216Z,99762.36
2019-04-27T16:46:13.213Z,99757.09
2019-04-27T16:51:18.330Z,99770.83
2019-04-27T16:56:24.525Z,99780.13
2019-04-27T17:01:30.360Z,99780.13
2019-04-27T17:07:41.842Z,99770.83
2019-04-27T17:12:46.048Z,99769.36
2019-04-27T17:17:59.910Z,99769.36
2019-04-27T17:23:03.906Z,99764.11
2019-04-27T17:28:13.480Z,99760.36
2019-04-27T17:33:25.819Z,99787.91
2019-04-27T17:38:30.467Z,99781.67
2019-04-27T17:43:37.468Z,99785.48
2019-04-27T17:48:40.367Z,99782.29
2019-04-27T17:53:44.465Z,99780.69
2019-04-27T17:58:48.767Z,99772.09
2019-04-27T18:03:58.845Z,99773.22
2019-04-27T18:09:00.702Z,99771.22
2019-04-27T18:14:04.722Z,99771.22
2019-04-27T18:19:20.770Z,99781.77
2019-04-27T18:24:29.014Z,99781.77
2019-04-27T18:29:32.694Z,99807.88
2019-04-27T18:34:38.942Z,99815.97
2019-04-27T18:39:45.459Z,99815.97
2019-04-27T18:44:48.798Z,99816.07
2019-04-27T18:50:14.751Z,99816.56
2019-04-27T18:55:20.025Z,99817.06
2019-04-27T19:00:23.114Z,99824.79
2019-04-27T19:05:37.951Z,99824.79
2019-04-27T19:10:33.044Z,99828.48
2019-04-27T19:15:38.522Z,99829.33
2019-04-27T19:20:42.747Z,99820.62
2019-04-27T19:26:04.605Z,99820.62
2019-04-27T19:31:13.752Z,99813.79
2019-04-27T19:36:19.204Z,99812.53
2019-04-27T19:41:23.242Z,99834.86
2019-04-27T19:46:28.809Z,99828.97
2019-04-27T19:51:33.107Z,99834.84
2019-04-27T19:56:38.369Z,99834.84
2019-04-27T20:01:48.117Z,99830.44
2019-04-27T20:06:52.327Z,99834.47
2019-04-27T20:11:56.488Z,99834.47
2019-04-27T20:17:00.475Z,99853.59
2019-04-27T20:22:04.625Z,99866.94
2019-04-27T20:27:10.807Z,99863.37
2019-04-27T20:32:14.845Z,99864.86
2019-04-27T20:37:20.914Z,99866.94
2019-04-27T20:42:24.981Z,99861.89
2019-04-27T20:47:29.118Z,99861.89
2019-04-27T20:53:01.324Z,99858.47
2019-04-27T20:58:05.436Z,99873.08
2019-04-27T21:03:18.792Z,99887.06
2019-04-27T21:08:23.589Z,99898.58
2019-04-27T21:13:27.679Z,99898.58
2019-04-27T21:18:31.938Z,99924.47
2019-04-27T21:23:36.009Z,99924.47
2019-04-27T21:28:42.988Z,99927.07
2019-04-27T21:33:46.051Z,99910.95
2019-04-27T21:38:51.275Z,99930.00
2019-04-27T21:43:55.543Z,99932.70
2019-04-27T21:48:59.632Z,99931.70
2019-04-27T21:54:16.091Z,99944.22
2019-04-27T21:59:21.091Z,99945.46
2019-04-27T22:04:25.317Z,99949.88
2019-04-27T22:09:29.379Z,99949.88
2019-04-27T22:14:33.563Z,99949.38
2019-04-27T22:19:37.714Z,99948.03
2019-04-27T22:24:43.081Z,99952.80
2019-04-27T22:29:47.540Z,99951.45
2019-04-27T22:34:51.784Z,99953.66
2019-04-27T22:40:13.517Z,99955.76
2019-04-27T22:45:24.847Z,99966.91
2019-04-27T22:50:28.986Z,99964.35
2019-04-27T22:55:33.095Z,99968.40
2019-04-27T23:00:51.387Z,99981.27
2019-04-27T23:05:55.558Z,99985.81
2019-04-27T23:11:00.560Z,99985.81
2019-04-27T23:16:07.383Z,99998.45
2019-04-27T23:21:11.834Z,99998.45
2019-04-27T23:26:15.982Z,100008.89
2019-04-27T23:31:52.715Z,100005.20
2019-04-27T23:36:56.932Z,100005.56
2019-04-27T23:42:01.718Z,100001.15
2019-04-27T23:47:06.974Z,99989.86
2019-04-27T23:52:16.139Z,99989.86
2019-04-27T23:57:21.794Z,99994.27
